sensor_id;sensor_type;location;lat;lon;timestamp;pressure;altitude;pressure_sealevel;temperature;humidity
70976;BME280;58635;51.198;6.010;2023-06-14T00:01:40;101192.03;;;25.83;29.42
70976;BME280;58635;51.198;6.010;2023-06-14T00:04:05;101188.34;;;25.79;29.50
70976;BME280;58635;51.198;6.010;2023-06-14T00:06:34;101191.88;;;25.75;29.54
70976;BME280;58635;51.198;6.010;2023-06-14T00:08:59;101188.47;;;25.69;29.63
70976;BME280;58635;51.198;6.010;2023-06-14T00:11:25;101189.31;;;25.64;29.37
70976;BME280;58635;51.198;6.010;2023-06-14T00:13:52;101188.31;;;25.60;29.56
70976;BME280;58635;51.198;6.010;2023-06-14T00:16:17;101188.88;;;25.57;30.09
70976;BME280;58635;51.198;6.010;2023-06-14T00:18:44;101194.22;;;25.52;29.90
70976;BME280;58635;51.198;6.010;2023-06-14T00:21:10;101192.16;;;25.49;30.31
70976;BME280;58635;51.198;6.010;2023-06-14T00:23:35;101193.78;;;25.45;30.19
70976;BME280;58635;51.198;6.010;2023-06-14T00:26:00;101196.19;;;25.42;30.29
70976;BME280;58635;51.198;6.010;2023-06-14T00:28:26;101196.28;;;25.36;30.31
70976;BME280;58635;51.198;6.010;2023-06-14T00:30:51;101196.81;;;25.33;30.61
70976;BME280;58635;51.198;6.010;2023-06-14T00:33:16;101203.47;;;25.31;30.56
70976;BME280;58635;51.198;6.010;2023-06-14T00:35:42;101204.31;;;25.26;30.47
70976;BME280;58635;51.198;6.010;2023-06-14T00:38:07;101201.47;;;25.23;30.79
70976;BME280;58635;51.198;6.010;2023-06-14T00:40:32;101205.72;;;25.19;30.57
70976;BME280;58635;51.198;6.010;2023-06-14T00:43:00;101200.19;;;25.15;30.42
70976;BME280;58635;51.198;6.010;2023-06-14T00:45:25;101202.91;;;25.10;30.54
70976;BME280;58635;51.198;6.010;2023-06-14T00:47:51;101208.25;;;25.05;30.68
70976;BME280;58635;51.198;6.010;2023-06-14T00:50:20;101207.22;;;25.01;30.66
70976;BME280;58635;51.198;6.010;2023-06-14T00:52:46;101202.72;;;24.96;31.24
70976;BME280;58635;51.198;6.010;2023-06-14T00:55:11;101210.44;;;24.93;30.86
70976;BME280;58635;51.198;6.010;2023-06-14T00:57:38;101199.91;;;24.88;30.82
70976;BME280;58635;51.198;6.010;2023-06-14T01:00:05;101207.59;;;24.84;31.27
70976;BME280;58635;51.198;6.010;2023-06-14T01:02:37;101212.66;;;24.81;30.97
70976;BME280;58635;51.198;6.010;2023-06-14T01:05:03;101210.09;;;24.75;31.16
70976;BME280;58635;51.198;6.010;2023-06-14T01:12:41;101206.72;;;24.65;31.40
70976;BME280;58635;51.198;6.010;2023-06-14T01:15:10;101203.81;;;24.61;31.83
70976;BME280;58635;51.198;6.010;2023-06-14T01:17:37;101216.81;;;24.58;31.52
70976;BME280;58635;51.198;6.010;2023-06-14T01:20:07;101207.38;;;24.52;31.74
70976;BME280;58635;51.198;6.010;2023-06-14T01:22:35;101209.75;;;24.48;31.71
70976;BME280;58635;51.198;6.010;2023-06-14T01:25:01;101207.94;;;24.43;31.95
70976;BME280;58635;51.198;6.010;2023-06-14T01:27:26;101212.22;;;24.39;32.00
70976;BME280;58635;51.198;6.010;2023-06-14T01:29:55;101212.22;;;24.34;32.14
70976;BME280;58635;51.198;6.010;2023-06-14T01:32:24;101210.38;;;24.30;32.44
70976;BME280;58635;51.198;6.010;2023-06-14T01:34:50;101210.13;;;24.26;32.83
70976;BME280;58635;51.198;6.010;2023-06-14T01:37:16;101208.03;;;24.23;32.66
70976;BME280;58635;51.198;6.010;2023-06-14T01:39:43;101212.31;;;24.19;32.68
70976;BME280;58635;51.198;6.010;2023-06-14T01:42:10;101214.72;;;24.15;32.68
70976;BME280;58635;51.198;6.010;2023-06-14T01:44:36;101211.28;;;24.10;32.90
70976;BME280;58635;51.198;6.010;2023-06-14T01:47:02;101212.34;;;24.09;32.83
70976;BME280;58635;51.198;6.010;2023-06-14T01:49:28;101215.56;;;24.06;32.88
70976;BME280;58635;51.198;6.010;2023-06-14T01:51:53;101208.94;;;24.03;33.26
70976;BME280;58635;51.198;6.010;2023-06-14T01:54:18;101216.34;;;24.01;33.48
70976;BME280;58635;51.198;6.010;2023-06-14T01:56:44;101211.63;;;23.98;33.45
70976;BME280;58635;51.198;6.010;2023-06-14T01:59:09;101208.75;;;23.95;33.23
70976;BME280;58635;51.198;6.010;2023-06-14T02:01:35;101203.47;;;23.89;33.41
70976;BME280;58635;51.198;6.010;2023-06-14T02:04:01;101215.38;;;23.87;33.69
70976;BME280;58635;51.198;6.010;2023-06-14T02:06:27;101210.63;;;23.84;33.90
70976;BME280;58635;51.198;6.010;2023-06-14T02:08:53;101217.53;;;23.80;33.51
70976;BME280;58635;51.198;6.010;2023-06-14T02:11:18;101216.47;;;23.76;34.06
70976;BME280;58635;51.198;6.010;2023-06-14T02:13:43;101212.81;;;23.72;33.92
70976;BME280;58635;51.198;6.010;2023-06-14T02:16:09;101217.03;;;23.68;34.18
70976;BME280;58635;51.198;6.010;2023-06-14T02:18:36;101223.13;;;23.63;34.25
70976;BME280;58635;51.198;6.010;2023-06-14T02:21:01;101215.75;;;23.60;33.90
70976;BME280;58635;51.198;6.010;2023-06-14T02:23:26;101219.94;;;23.56;34.41
70976;BME280;58635;51.198;6.010;2023-06-14T02:25:52;101228.41;;;23.53;34.21
70976;BME280;58635;51.198;6.010;2023-06-14T02:28:17;101233.72;;;23.48;34.06
70976;BME280;58635;51.198;6.010;2023-06-14T02:30:42;101216.84;;;23.39;34.40
70976;BME280;58635;51.198;6.010;2023-06-14T02:33:08;101219.75;;;23.37;34.46
70976;BME280;58635;51.198;6.010;2023-06-14T02:35:37;101222.94;;;23.34;34.25
70976;BME280;58635;51.198;6.010;2023-06-14T02:38:02;101228.47;;;23.32;34.29
70976;BME280;58635;51.198;6.010;2023-06-14T02:40:28;101231.63;;;23.29;34.68
70976;BME280;58635;51.198;6.010;2023-06-14T02:42:53;101231.91;;;23.28;34.60
70976;BME280;58635;51.198;6.010;2023-06-14T02:45:18;101236.13;;;23.24;34.41
70976;BME280;58635;51.198;6.010;2023-06-14T02:47:45;101233.50;;;23.19;34.71
70976;BME280;58635;51.198;6.010;2023-06-14T02:50:10;101234.56;;;23.18;34.39
70976;BME280;58635;51.198;6.010;2023-06-14T02:52:36;101236.94;;;23.14;34.48
70976;BME280;58635;51.198;6.010;2023-06-14T02:55:02;101238.00;;;23.13;34.62
70976;BME280;58635;51.198;6.010;2023-06-14T02:57:27;101240.13;;;23.11;34.54
70976;BME280;58635;51.198;6.010;2023-06-14T02:59:53;101240.38;;;23.10;34.64
70976;BME280;58635;51.198;6.010;2023-06-14T03:02:18;101247.75;;;23.08;35.09
70976;BME280;58635;51.198;6.010;2023-06-14T03:04:43;101241.44;;;23.03;35.10
70976;BME280;58635;51.198;6.010;2023-06-14T03:07:09;101242.75;;;23.01;35.22
70976;BME280;58635;51.198;6.010;2023-06-14T03:09:36;101252.28;;;22.97;35.40
70976;BME280;58635;51.198;6.010;2023-06-14T03:12:05;101252.50;;;22.95;35.35
70976;BME280;58635;51.198;6.010;2023-06-14T03:14:35;101249.88;;;22.90;35.26
70976;BME280;58635;51.198;6.010;2023-06-14T03:17:01;101251.22;;;22.88;35.27
70976;BME280;58635;51.198;6.010;2023-06-14T03:19:26;101258.03;;;22.84;35.27
70976;BME280;58635;51.198;6.010;2023-06-14T03:21:52;101252.22;;;22.82;35.41
70976;BME280;58635;51.198;6.010;2023-06-14T03:24:18;101246.41;;;22.80;35.48
70976;BME280;58635;51.198;6.010;2023-06-14T03:26:45;101256.44;;;22.77;35.61
70976;BME280;58635;51.198;6.010;2023-06-14T03:29:10;101257.22;;;22.73;35.69
70976;BME280;58635;51.198;6.010;2023-06-14T03:31:35;101260.13;;;22.71;35.57
70976;BME280;58635;51.198;6.010;2023-06-14T03:34:01;101259.59;;;22.69;35.66
70976;BME280;58635;51.198;6.010;2023-06-14T03:36:26;101254.84;;;22.66;35.68
70976;BME280;58635;51.198;6.010;2023-06-14T03:38:53;101261.44;;;22.64;35.65
70976;BME280;58635;51.198;6.010;2023-06-14T03:41:18;101269.88;;;22.66;36.07
70976;BME280;58635;51.198;6.010;2023-06-14T03:43:44;101262.22;;;22.64;35.93
70976;BME280;58635;51.198;6.010;2023-06-14T03:46:09;101273.03;;;22.63;35.70
70976;BME280;58635;51.198;6.010;2023-06-14T03:48:34;101274.91;;;22.62;35.81
70976;BME280;58635;51.198;6.010;2023-06-14T03:51:00;101269.84;;;22.61;35.89
70976;BME280;58635;51.198;6.010;2023-06-14T03:53:25;101269.34;;;22.59;35.86
70976;BME280;58635;51.198;6.010;2023-06-14T03:55:53;101279.88;;;22.59;35.92
70976;BME280;58635;51.198;6.010;2023-06-14T03:58:19;101273.03;;;22.58;36.16
70976;BME280;58635;51.198;6.010;2023-06-14T04:00:44;101274.09;;;22.57;35.97
70976;BME280;58635;51.198;6.010;2023-06-14T04:03:10;101273.28;;;22.56;35.79
70976;BME280;58635;51.198;6.010;2023-06-14T04:05:38;101276.97;;;22.55;35.84
70976;BME280;58635;51.198;6.010;2023-06-14T04:08:07;101275.94;;;22.56;36.26
70976;BME280;58635;51.198;6.010;2023-06-14T04:10:34;101283.03;;;22.56;36.25
70976;BME280;58635;51.198;6.010;2023-06-14T04:12:59;101283.31;;;22.54;36.24
70976;BME280;58635;51.198;6.010;2023-06-14T04:15:25;101287.78;;;22.54;36.08
70976;BME280;58635;51.198;6.010;2023-06-14T04:17:50;101299.38;;;22.53;36.65
70976;BME280;58635;51.198;6.010;2023-06-14T04:20:16;101298.88;;;22.51;36.31
70976;BME280;58635;51.198;6.010;2023-06-14T04:22:42;101294.66;;;22.50;36.55
70976;BME280;58635;51.198;6.010;2023-06-14T04:25:08;101294.09;;;22.47;36.58
70976;BME280;58635;51.198;6.010;2023-06-14T04:27:33;101295.66;;;22.48;36.42
70976;BME280;58635;51.198;6.010;2023-06-14T04:30:01;101298.88;;;22.51;36.41
70976;BME280;58635;51.198;6.010;2023-06-14T04:32:28;101293.84;;;22.54;36.56
70976;BME280;58635;51.198;6.010;2023-06-14T04:35:03;101290.44;;;22.59;36.44
70976;BME280;58635;51.198;6.010;2023-06-14T04:37:29;101294.66;;;22.65;36.53
70976;BME280;58635;51.198;6.010;2023-06-14T04:39:55;101299.66;;;22.71;36.34
70976;BME280;58635;51.198;6.010;2023-06-14T04:42:21;101296.53;;;22.80;36.17
70976;BME280;58635;51.198;6.010;2023-06-14T04:44:50;101301.59;;;22.86;36.25
70976;BME280;58635;51.198;6.010;2023-06-14T04:47:16;101302.38;;;22.92;36.28
70976;BME280;58635;51.198;6.010;2023-06-14T04:49:42;101307.13;;;23.00;35.92
70976;BME280;58635;51.198;6.010;2023-06-14T04:52:07;101299.47;;;23.09;36.12
70976;BME280;58635;51.198;6.010;2023-06-14T04:54:36;101302.91;;;23.19;36.14
70976;BME280;58635;51.198;6.010;2023-06-14T04:57:03;101308.44;;;23.28;36.05
70976;BME280;58635;51.198;6.010;2023-06-14T04:59:29;101301.81;;;23.41;35.48
70976;BME280;58635;51.198;6.010;2023-06-14T05:01:58;101305.50;;;23.55;35.42
70976;BME280;58635;51.198;6.010;2023-06-14T05:04:25;101321.09;;;23.67;35.56
70976;BME280;58635;51.198;6.010;2023-06-14T05:06:51;101318.16;;;23.78;35.19
70976;BME280;58635;51.198;6.010;2023-06-14T05:09:19;101323.13;;;23.90;35.27
70976;BME280;58635;51.198;6.010;2023-06-14T05:11:45;101318.34;;;24.02;34.83
70976;BME280;58635;51.198;6.010;2023-06-14T05:14:11;101323.88;;;24.16;34.84
70976;BME280;58635;51.198;6.010;2023-06-14T05:16:37;101308.72;;;24.27;34.39
70976;BME280;58635;51.198;6.010;2023-06-14T05:19:03;101317.97;;;24.39;34.45
70976;BME280;58635;51.198;6.010;2023-06-14T05:21:29;101317.88;;;24.55;34.34
70976;BME280;58635;51.198;6.010;2023-06-14T05:23:55;101322.81;;;24.66;34.20
70976;BME280;58635;51.198;6.010;2023-06-14T05:26:21;101327.78;;;24.78;33.93
70976;BME280;58635;51.198;6.010;2023-06-14T05:28:48;101331.94;;;24.89;33.42
70976;BME280;58635;51.198;6.010;2023-06-14T05:31:15;101331.31;;;24.97;33.41
70976;BME280;58635;51.198;6.010;2023-06-14T05:33:40;101332.41;;;25.01;33.27
70976;BME280;58635;51.198;6.010;2023-06-14T05:36:05;101328.09;;;25.11;33.07
70976;BME280;58635;51.198;6.010;2023-06-14T05:38:30;101330.66;;;25.21;33.33
70976;BME280;58635;51.198;6.010;2023-06-14T05:40:56;101340.94;;;25.27;33.03
70976;BME280;58635;51.198;6.010;2023-06-14T05:43:21;101335.03;;;25.35;32.78
70976;BME280;58635;51.198;6.010;2023-06-14T05:45:46;101337.59;;;25.46;32.68
70976;BME280;58635;51.198;6.010;2023-06-14T05:48:12;101344.09;;;25.58;32.43
70976;BME280;58635;51.198;6.010;2023-06-14T05:50:37;101345.31;;;25.71;32.37
70976;BME280;58635;51.198;6.010;2023-06-14T05:53:02;101349.69;;;25.81;32.45
70976;BME280;58635;51.198;6.010;2023-06-14T05:55:28;101354.56;;;25.98;32.10
70976;BME280;58635;51.198;6.010;2023-06-14T05:57:53;101356.75;;;26.14;31.89
70976;BME280;58635;51.198;6.010;2023-06-14T06:00:19;101356.06;;;26.28;31.39
70976;BME280;58635;51.198;6.010;2023-06-14T06:02:45;101358.28;;;26.44;31.29
70976;BME280;58635;51.198;6.010;2023-06-14T06:05:11;101349.50;;;26.63;31.25
70976;BME280;58635;51.198;6.010;2023-06-14T06:07:37;101360.44;;;26.80;30.83
70976;BME280;58635;51.198;6.010;2023-06-14T06:10:05;101356.84;;;26.90;30.70
70976;BME280;58635;51.198;6.010;2023-06-14T06:12:31;101362.69;;;26.87;30.53
70976;BME280;58635;51.198;6.010;2023-06-14T06:14:56;101372.53;;;26.86;30.70
70976;BME280;58635;51.198;6.010;2023-06-14T06:17:22;101368.88;;;26.82;30.48
70976;BME280;58635;51.198;6.010;2023-06-14T06:19:47;101363.22;;;26.89;30.58
70976;BME280;58635;51.198;6.010;2023-06-14T06:22:12;101375.22;;;27.05;30.25
70976;BME280;58635;51.198;6.010;2023-06-14T06:24:37;101371.16;;;27.26;29.89
70976;BME280;58635;51.198;6.010;2023-06-14T06:27:03;101373.84;;;27.40;29.79
70976;BME280;58635;51.198;6.010;2023-06-14T06:29:29;101379.84;;;27.46;29.50
70976;BME280;58635;51.198;6.010;2023-06-14T06:31:54;101383.09;;;27.43;29.15
70976;BME280;58635;51.198;6.010;2023-06-14T06:34:21;101391.25;;;27.46;29.53
70976;BME280;58635;51.198;6.010;2023-06-14T06:36:46;101387.88;;;27.59;29.41
70976;BME280;58635;51.198;6.010;2023-06-14T06:39:12;101392.81;;;27.80;29.01
70976;BME280;58635;51.198;6.010;2023-06-14T06:41:37;101399.44;;;27.96;29.88
70976;BME280;58635;51.198;6.010;2023-06-14T06:44:05;101398.25;;;28.16;28.91
70976;BME280;58635;51.198;6.010;2023-06-14T06:46:32;101403.19;;;28.22;28.29
70976;BME280;58635;51.198;6.010;2023-06-14T06:48:57;101400.91;;;28.30;28.03
70976;BME280;58635;51.198;6.010;2023-06-14T06:51:23;101399.94;;;28.39;27.71
70976;BME280;58635;51.198;6.010;2023-06-14T06:53:53;101407.41;;;28.51;27.23
70976;BME280;58635;51.198;6.010;2023-06-14T06:56:19;101413.97;;;28.67;27.55
70976;BME280;58635;51.198;6.010;2023-06-14T06:58:45;101406.63;;;28.87;26.95
70976;BME280;58635;51.198;6.010;2023-06-14T07:01:10;101420.72;;;29.01;26.83
70976;BME280;58635;51.198;6.010;2023-06-14T07:03:36;101416.22;;;29.10;26.27
70976;BME280;58635;51.198;6.010;2023-06-14T07:06:02;101416.13;;;29.15;25.95
70976;BME280;58635;51.198;6.010;2023-06-14T07:08:27;101412.28;;;29.30;25.61
70976;BME280;58635;51.198;6.010;2023-06-14T07:10:54;101408.94;;;29.47;25.31
70976;BME280;58635;51.198;6.010;2023-06-14T07:13:19;101416.53;;;29.53;24.77
70976;BME280;58635;51.198;6.010;2023-06-14T07:15:45;101411.56;;;29.60;24.51
70976;BME280;58635;51.198;6.010;2023-06-14T07:18:10;101416.91;;;29.69;24.49
70976;BME280;58635;51.198;6.010;2023-06-14T07:20:36;101418.28;;;29.89;24.13
70976;BME280;58635;51.198;6.010;2023-06-14T07:23:03;101428.59;;;30.13;24.01
70976;BME280;58635;51.198;6.010;2023-06-14T07:25:29;101432.19;;;30.17;24.00
70976;BME280;58635;51.198;6.010;2023-06-14T07:27:54;101433.06;;;30.04;23.71
70976;BME280;58635;51.198;6.010;2023-06-14T07:30:20;101435.25;;;30.02;23.99
70976;BME280;58635;51.198;6.010;2023-06-14T07:32:46;101434.69;;;30.13;24.38
70976;BME280;58635;51.198;6.010;2023-06-14T07:35:11;101439.00;;;30.40;24.07
70976;BME280;58635;51.198;6.010;2023-06-14T07:37:36;101433.25;;;30.55;23.80
70976;BME280;58635;51.198;6.010;2023-06-14T07:40:02;101442.63;;;30.53;23.83
70976;BME280;58635;51.198;6.010;2023-06-14T07:42:33;101437.91;;;30.50;23.60
70976;BME280;58635;51.198;6.010;2023-06-14T07:44:59;101436.34;;;30.49;23.58
70976;BME280;58635;51.198;6.010;2023-06-14T07:47:24;101435.25;;;30.50;23.65
70976;BME280;58635;51.198;6.010;2023-06-14T07:49:50;101440.28;;;30.51;23.73
70976;BME280;58635;51.198;6.010;2023-06-14T07:52:15;101443.59;;;30.57;23.37
70976;BME280;58635;51.198;6.010;2023-06-14T07:54:41;101441.25;;;30.64;23.58
70976;BME280;58635;51.198;6.010;2023-06-14T07:57:06;101445.69;;;30.69;23.01
70976;BME280;58635;51.198;6.010;2023-06-14T07:59:32;101443.47;;;30.71;23.64
70976;BME280;58635;51.198;6.010;2023-06-14T08:01:57;101446.94;;;30.71;23.74
70976;BME280;58635;51.198;6.010;2023-06-14T08:04:23;101448.34;;;30.77;23.13
70976;BME280;58635;51.198;6.010;2023-06-14T08:06:50;101452.13;;;30.76;23.58
70976;BME280;58635;51.198;6.010;2023-06-14T08:09:15;101446.31;;;30.74;23.63
70976;BME280;58635;51.198;6.010;2023-06-14T08:11:41;101450.56;;;30.84;23.26
70976;BME280;58635;51.198;6.010;2023-06-14T08:14:08;101440.97;;;30.92;23.07
70976;BME280;58635;51.198;6.010;2023-06-14T08:16:33;101440.34;;;30.86;22.51
70976;BME280;58635;51.198;6.010;2023-06-14T08:18:59;101446.16;;;30.71;23.01
70976;BME280;58635;51.198;6.010;2023-06-14T08:21:24;101442.31;;;30.54;22.63
70976;BME280;58635;51.198;6.010;2023-06-14T08:23:54;101453.00;;;30.46;22.83
70976;BME280;58635;51.198;6.010;2023-06-14T08:26:20;101454.38;;;30.35;23.31
70976;BME280;58635;51.198;6.010;2023-06-14T08:28:46;101453.41;;;30.22;22.99
70976;BME280;58635;51.198;6.010;2023-06-14T08:31:11;101462.16;;;30.14;23.13
70976;BME280;58635;51.198;6.010;2023-06-14T08:33:36;101456.19;;;30.08;23.40
70976;BME280;58635;51.198;6.010;2023-06-14T08:36:02;101452.34;;;30.01;23.38
70976;BME280;58635;51.198;6.010;2023-06-14T08:38:27;101447.28;;;29.90;23.12
70976;BME280;58635;51.198;6.010;2023-06-14T08:40:57;101453.09;;;29.84;23.42
70976;BME280;58635;51.198;6.010;2023-06-14T08:43:22;101454.03;;;29.88;23.02
70976;BME280;58635;51.198;6.010;2023-06-14T08:45:49;101447.97;;;29.96;23.49
70976;BME280;58635;51.198;6.010;2023-06-14T08:48:19;101448.47;;;30.07;23.50
70976;BME280;58635;51.198;6.010;2023-06-14T08:50:47;101453.53;;;30.17;22.62
70976;BME280;58635;51.198;6.010;2023-06-14T08:53:14;101441.47;;;30.28;22.23
70976;BME280;58635;51.198;6.010;2023-06-14T08:55:44;101446.06;;;30.36;21.88
70976;BME280;58635;51.198;6.010;2023-06-14T08:58:10;101435.84;;;30.30;21.88
70976;BME280;58635;51.198;6.010;2023-06-14T09:00:39;101447.28;;;30.21;21.35
70976;BME280;58635;51.198;6.010;2023-06-14T09:03:06;101443.00;;;30.12;20.67
70976;BME280;58635;51.198;6.010;2023-06-14T09:05:38;101446.31;;;30.09;21.13
70976;BME280;58635;51.198;6.010;2023-06-14T09:08:03;101444.91;;;30.11;19.93
70976;BME280;58635;51.198;6.010;2023-06-14T09:10:31;101443.94;;;30.07;19.54
70976;BME280;58635;51.198;6.010;2023-06-14T09:13:00;101436.50;;;30.04;18.69
70976;BME280;58635;51.198;6.010;2023-06-14T09:15:25;101449.56;;;30.06;19.07
70976;BME280;58635;51.198;6.010;2023-06-14T09:17:51;101455.19;;;30.04;19.44
70976;BME280;58635;51.198;6.010;2023-06-14T09:20:16;101461.81;;;30.07;19.56
70976;BME280;58635;51.198;6.010;2023-06-14T09:22:44;101451.66;;;30.09;19.41
70976;BME280;58635;51.198;6.010;2023-06-14T09:25:09;101452.28;;;30.14;19.17
70976;BME280;58635;51.198;6.010;2023-06-14T09:27:36;101456.06;;;30.22;18.89
70976;BME280;58635;51.198;6.010;2023-06-14T09:30:05;101443.34;;;30.19;19.40
70976;BME280;58635;51.198;6.010;2023-06-14T09:32:36;101450.91;;;30.25;19.67
70976;BME280;58635;51.198;6.010;2023-06-14T09:35:02;101448.09;;;30.39;19.64
70976;BME280;58635;51.198;6.010;2023-06-14T09:37:29;101447.19;;;30.44;18.98
70976;BME280;58635;51.198;6.010;2023-06-14T09:39:56;101446.53;;;30.38;19.43
70976;BME280;58635;51.198;6.010;2023-06-14T09:42:21;101455.81;;;30.32;19.50
70976;BME280;58635;51.198;6.010;2023-06-14T09:44:49;101447.94;;;30.36;19.51
70976;BME280;58635;51.198;6.010;2023-06-14T09:47:18;101435.72;;;30.43;19.60
70976;BME280;58635;51.198;6.010;2023-06-14T09:49:43;101450.00;;;30.47;19.29
70976;BME280;58635;51.198;6.010;2023-06-14T09:52:15;101448.94;;;30.57;19.75
70976;BME280;58635;51.198;6.010;2023-06-14T09:54:43;101451.44;;;30.62;19.92
70976;BME280;58635;51.198;6.010;2023-06-14T09:57:12;101453.00;;;30.54;19.94
70976;BME280;58635;51.198;6.010;2023-06-14T09:59:41;101448.16;;;30.56;19.33
70976;BME280;58635;51.198;6.010;2023-06-14T10:02:12;101440.47;;;30.64;19.59
70976;BME280;58635;51.198;6.010;2023-06-14T10:04:42;101440.66;;;30.67;19.23
70976;BME280;58635;51.198;6.010;2023-06-14T10:07:09;101451.97;;;30.73;19.39
70976;BME280;58635;51.198;6.010;2023-06-14T10:09:35;101458.88;;;30.74;19.24
70976;BME280;58635;51.198;6.010;2023-06-14T10:12:01;101448.03;;;30.70;19.07
70976;BME280;58635;51.198;6.010;2023-06-14T10:14:27;101450.41;;;30.72;19.71
70976;BME280;58635;51.198;6.010;2023-06-14T10:19:29;101444.22;;;30.63;19.85
70976;BME280;58635;51.198;6.010;2023-06-14T10:24:40;101444.84;;;30.60;19.99
70976;BME280;58635;51.198;6.010;2023-06-14T10:27:07;101443.63;;;30.66;19.75
70976;BME280;58635;51.198;6.010;2023-06-14T10:32:24;101440.97;;;30.83;19.93
70976;BME280;58635;51.198;6.010;2023-06-14T10:34:58;101427.13;;;30.98;20.00
70976;BME280;58635;51.198;6.010;2023-06-14T10:37:24;101430.41;;;31.12;20.00
70976;BME280;58635;51.198;6.010;2023-06-14T10:39:50;101430.59;;;31.25;19.66
70976;BME280;58635;51.198;6.010;2023-06-14T10:42:15;101439.22;;;31.39;19.91
70976;BME280;58635;51.198;6.010;2023-06-14T10:44:54;101429.44;;;31.52;20.02
70976;BME280;58635;51.198;6.010;2023-06-14T10:47:34;101438.38;;;31.64;20.07
70976;BME280;58635;51.198;6.010;2023-06-14T10:50:05;101447.66;;;31.58;20.08
70976;BME280;58635;51.198;6.010;2023-06-14T10:52:33;101433.66;;;31.61;19.68
70976;BME280;58635;51.198;6.010;2023-06-14T10:55:11;101442.28;;;31.67;20.00
70976;BME280;58635;51.198;6.010;2023-06-14T10:58:00;101435.97;;;31.71;19.69
70976;BME280;58635;51.198;6.010;2023-06-14T11:00:28;101445.84;;;31.97;19.67
70976;BME280;58635;51.198;6.010;2023-06-14T11:03:36;101439.88;;;32.21;19.55
70976;BME280;58635;51.198;6.010;2023-06-14T11:06:13;101447.50;;;32.40;19.17
70976;BME280;58635;51.198;6.010;2023-06-14T11:11:22;101447.41;;;32.57;18.95
70976;BME280;58635;51.198;6.010;2023-06-14T11:13:51;101436.94;;;32.64;19.34
70976;BME280;58635;51.198;6.010;2023-06-14T11:16:17;101440.22;;;32.70;19.16
70976;BME280;58635;51.198;6.010;2023-06-14T11:18:46;101443.44;;;32.84;19.18
70976;BME280;58635;51.198;6.010;2023-06-14T11:21:15;101441.31;;;32.90;19.02
70976;BME280;58635;51.198;6.010;2023-06-14T11:23:41;101431.91;;;33.04;19.33
70976;BME280;58635;51.198;6.010;2023-06-14T11:26:07;101434.88;;;33.24;19.00
70976;BME280;58635;51.198;6.010;2023-06-14T11:28:40;101444.38;;;33.33;18.58
70976;BME280;58635;51.198;6.010;2023-06-14T11:31:06;101441.59;;;33.30;18.77
70976;BME280;58635;51.198;6.010;2023-06-14T11:33:32;101448.78;;;33.38;18.84
70976;BME280;58635;51.198;6.010;2023-06-14T11:35:58;101450.72;;;33.50;18.66
70976;BME280;58635;51.198;6.010;2023-06-14T11:38:25;101437.88;;;33.55;18.46
70976;BME280;58635;51.198;6.010;2023-06-14T11:40:51;101433.31;;;33.68;18.27
70976;BME280;58635;51.198;6.010;2023-06-14T11:43:16;101444.28;;;33.75;18.33
70976;BME280;58635;51.198;6.010;2023-06-14T11:45:42;101434.97;;;33.60;18.50
70976;BME280;58635;51.198;6.010;2023-06-14T11:48:07;101446.47;;;33.61;18.50
70976;BME280;58635;51.198;6.010;2023-06-14T11:50:37;101438.09;;;33.62;18.25
70976;BME280;58635;51.198;6.010;2023-06-14T11:53:03;101438.78;;;33.71;18.06
70976;BME280;58635;51.198;6.010;2023-06-14T11:55:35;101444.28;;;33.75;18.32
70976;BME280;58635;51.198;6.010;2023-06-14T11:58:01;101447.50;;;33.56;18.54
70976;BME280;58635;51.198;6.010;2023-06-14T12:00:26;101445.13;;;33.55;18.50
70976;BME280;58635;51.198;6.010;2023-06-14T12:02:55;101445.06;;;33.63;18.26
70976;BME280;58635;51.198;6.010;2023-06-14T12:05:21;101434.19;;;33.72;18.24
70976;BME280;58635;51.198;6.010;2023-06-14T12:07:47;101438.69;;;33.68;18.09
70976;BME280;58635;51.198;6.010;2023-06-14T12:10:14;101440.81;;;33.75;18.06
70976;BME280;58635;51.198;6.010;2023-06-14T12:12:40;101441.59;;;33.75;18.02
70976;BME280;58635;51.198;6.010;2023-06-14T12:15:07;101444.38;;;33.79;18.17
70976;BME280;58635;51.198;6.010;2023-06-14T12:17:34;101434.97;;;33.60;18.09
70976;BME280;58635;51.198;6.010;2023-06-14T12:20:05;101430.50;;;33.52;18.14
70976;BME280;58635;51.198;6.010;2023-06-14T12:22:33;101446.81;;;33.59;17.79
70976;BME280;58635;51.198;6.010;2023-06-14T12:24:59;101429.84;;;33.67;17.22
70976;BME280;58635;51.198;6.010;2023-06-14T12:27:25;101425.50;;;33.75;17.59
70976;BME280;58635;51.198;6.010;2023-06-14T12:30:03;101430.63;;;33.80;17.31
70976;BME280;58635;51.198;6.010;2023-06-14T12:32:30;101430.63;;;33.80;17.41
70976;BME280;58635;51.198;6.010;2023-06-14T12:34:55;101431.50;;;33.84;17.45
70976;BME280;58635;51.198;6.010;2023-06-14T12:37:20;101429.06;;;33.79;17.46
70976;BME280;58635;51.198;6.010;2023-06-14T12:39:46;101440.00;;;33.62;17.50
70976;BME280;58635;51.198;6.010;2023-06-14T12:42:11;101440.91;;;33.54;17.58
70976;BME280;58635;51.198;6.010;2023-06-14T12:44:38;101433.03;;;33.49;17.65
70976;BME280;58635;51.198;6.010;2023-06-14T12:47:09;101423.78;;;33.46;17.89
70976;BME280;58635;51.198;6.010;2023-06-14T12:49:34;101424.56;;;33.59;18.12
70976;BME280;58635;51.198;6.010;2023-06-14T12:51:59;101425.16;;;33.77;17.84
70976;BME280;58635;51.198;6.010;2023-06-14T12:54:25;101425.38;;;33.84;17.95
70976;BME280;58635;51.198;6.010;2023-06-14T12:56:53;101428.06;;;33.84;18.22
70976;BME280;58635;51.198;6.010;2023-06-14T12:59:20;101425.41;;;33.96;17.96
70976;BME280;58635;51.198;6.010;2023-06-14T13:01:45;101428.06;;;34.08;17.36
70976;BME280;58635;51.198;6.010;2023-06-14T13:04:12;101443.94;;;34.25;17.62